Time;durP1;ratioP1;P1;durP2;ratioP2;P2;SDS_P1;SDS_P2;PMS_P1;PMS_P2;Temp;Humidity;BMP_temperature;BMP_pressure;BME280_temperature;BME280_humidity;BME280_pressure;Samples;Min_cycle;Max_cycle;Signal;HPM_P1;HPM_P2
2022/12/20 00:00:28;;;;;;;78.82;27.35;;;;;;;-2.44;100.00;99290.22;2621790;28;20080;-88
2022/12/20 00:02:02;;;;;;;82.13;25.80;;;;;;;-2.19;100.00;99288.56;2622374;28;20501;-89
2022/12/20 00:03:19;;;;;;;75.63;25.73;;;;;;;-2.10;100.00;99293.13;2620955;28;20051;-89
2022/12/20 00:04:35;;;;;;;75.70;25.73;;;;;;;-2.08;100.00;99300.09;2620989;28;20714;-87
2022/12/20 00:05:50;;;;;;;72.07;25.75;;;;;;;-2.24;100.00;99298.63;2621985;28;20043;-87
2022/12/20 00:07:06;;;;;;;83.60;27.05;;;;;;;-2.17;100.00;99302.31;2622208;28;20445;-87
2022/12/20 00:08:21;;;;;;;77.22;25.05;;;;;;;-2.50;100.00;99296.00;2621292;28;20443;-87
2022/12/20 00:09:37;;;;;;;78.35;24.52;;;;;;;-2.43;100.00;99305.66;2622987;28;20044;-88
2022/12/20 00:10:53;;;;;;;90.80;27.40;;;;;;;-2.24;100.00;99295.22;2621471;28;20059;-88
2022/12/20 00:12:08;;;;;;;82.20;26.45;;;;;;;-2.18;100.00;99292.84;2621451;28;20052;-87
2022/12/20 00:13:24;;;;;;;90.95;25.48;;;;;;;-2.27;100.00;99301.97;2619710;28;20138;-87
2022/12/20 00:14:39;;;;;;;90.57;27.65;;;;;;;-2.14;100.00;99298.16;2621188;28;20445;-90
2022/12/20 00:16:06;;;;;;;88.63;26.45;;;;;;;-2.03;100.00;99295.97;2620991;28;20573;-88
2022/12/20 00:17:21;;;;;;;103.45;26.17;;;;;;;-2.03;100.00;99293.41;2622066;28;20131;-87
2022/12/20 00:18:39;;;;;;;84.25;24.52;;;;;;;-2.02;100.00;99296.88;2622143;28;20062;-87
2022/12/20 00:19:55;;;;;;;84.15;27.33;;;;;;;-1.95;100.00;99288.59;2622659;28;20044;-87
2022/12/20 00:21:13;;;;;;;81.72;25.80;;;;;;;-1.96;100.00;99289.38;2623202;28;20138;-86
2022/12/20 00:22:28;;;;;;;97.20;29.00;;;;;;;-1.92;100.00;99282.69;2622952;28;20490;-88
2022/12/20 00:23:44;;;;;;;131.98;29.25;;;;;;;-1.85;100.00;99284.66;2620155;28;20071;-88
2022/12/20 00:25:00;;;;;;;100.97;28.70;;;;;;;-1.76;100.00;99284.09;2620842;28;20044;-87
2022/12/20 00:26:18;;;;;;;92.95;28.95;;;;;;;-1.72;100.00;99288.50;2621006;28;20417;-87
2022/12/20 00:27:34;;;;;;;131.77;31.65;;;;;;;-1.72;100.00;99291.09;2622197;28;20055;-88
2022/12/20 00:28:50;;;;;;;111.20;27.73;;;;;;;-1.71;100.00;99293.72;2619923;28;20468;-89
2022/12/20 00:30:06;;;;;;;87.30;26.45;;;;;;;-1.77;100.00;99295.19;2621970;28;20048;-92
2022/12/20 00:31:24;;;;;;;99.65;28.88;;;;;;;-1.88;100.00;99292.25;2619237;28;20048;-88
2022/12/20 00:32:40;;;;;;;96.25;27.50;;;;;;;-1.80;100.00;99290.81;2621402;28;20413;-87
2022/12/20 00:33:57;;;;;;;101.30;28.92;;;;;;;-1.81;100.00;99289.06;2621997;28;20101;-87
2022/12/20 00:35:13;;;;;;;95.25;27.95;;;;;;;-1.90;100.00;99287.06;2621114;28;20052;-87
2022/12/20 00:36:30;;;;;;;124.05;30.85;;;;;;;-1.88;100.00;99284.56;2620436;28;20509;-92
2022/12/20 00:37:46;;;;;;;101.20;29.80;;;;;;;-1.95;100.00;99280.91;2622189;28;20052;-87
2022/12/20 00:39:02;;;;;;;106.13;31.02;;;;;;;-2.18;100.00;99280.91;2621377;28;20060;-89
2022/12/20 00:40:17;;;;;;;103.70;30.75;;;;;;;-2.07;100.00;99272.75;2621374;28;20052;-91
2022/12/20 00:41:33;;;;;;;122.40;32.55;;;;;;;-1.97;100.00;99274.81;2622380;28;20059;-88
2022/12/20 00:42:49;;;;;;;108.43;29.40;;;;;;;-2.02;100.00;99274.66;2622683;28;20056;-87
2022/12/20 00:44:04;;;;;;;105.35;31.33;;;;;;;-2.04;100.00;99267.72;2620462;28;20044;-87
2022/12/20 00:45:20;;;;;;;105.90;29.38;;;;;;;-2.21;100.00;99268.00;2619923;28;20047;-87
2022/12/20 00:46:35;;;;;;;130.35;32.40;;;;;;;-2.20;100.00;99274.88;2620124;28;20519;-87
2022/12/20 00:47:51;;;;;;;115.72;31.52;;;;;;;-2.27;100.00;99272.88;2622845;28;20044;-87
2022/12/20 00:49:07;;;;;;;104.53;29.40;;;;;;;-2.53;100.00;99274.47;2620489;28;20052;-87
2022/12/20 00:50:22;;;;;;;129.70;32.92;;;;;;;-2.40;100.00;99284.38;2619936;28;20044;-88
2022/12/20 00:51:38;;;;;;;151.10;33.65;;;;;;;-2.36;100.00;99285.38;2620156;28;20129;-87
2022/12/20 00:52:54;;;;;;;127.05;32.88;;;;;;;-2.35;100.00;99287.13;2619870;28;20057;-87
2022/12/20 00:54:10;;;;;;;116.35;34.67;;;;;;;-2.16;100.00;99281.84;2621519;28;20084;-87
2022/12/20 00:55:25;;;;;;;120.53;31.27;;;;;;;-2.21;100.00;99282.50;2619455;28;20466;-87
2022/12/20 00:56:41;;;;;;;132.55;32.72;;;;;;;-2.13;100.00;99270.84;2621832;28;20144;-87
2022/12/20 00:57:56;;;;;;;118.80;34.15;;;;;;;-2.05;100.00;99271.09;2619313;28;20045;-86
2022/12/20 00:59:12;;;;;;;107.88;31.83;;;;;;;-2.20;100.00;99277.44;2620550;28;20522;-86
2022/12/20 01:00:28;;;;;;;115.03;32.47;;;;;;;-2.22;100.00;99278.19;2622133;28;20415;-89
2022/12/20 01:01:43;;;;;;;115.40;31.73;;;;;;;-2.24;100.00;99275.53;2622425;28;20581;-87
2022/12/20 01:02:59;;;;;;;123.47;32.78;;;;;;;-2.30;100.00;99270.22;2620321;28;20129;-88
2022/12/20 01:04:15;;;;;;;103.95;32.00;;;;;;;-2.46;100.00;99274.75;2621637;28;20084;-87
2022/12/20 01:05:31;;;;;;;105.13;29.58;;;;;;;-2.57;100.00;99270.91;2621715;28;20048;-87
2022/12/20 01:06:46;;;;;;;118.50;31.00;;;;;;;-2.42;100.00;99271.50;2621450;28;20456;-87
2022/12/20 01:08:02;;;;;;;115.05;29.77;;;;;;;-2.68;100.00;99265.38;2622051;28;20063;-86
2022/12/20 01:09:18;;;;;;;121.45;29.85;;;;;;;-2.60;100.00;99258.84;2621863;28;20048;-87
2022/12/20 01:10:34;;;;;;;115.15;27.88;;;;;;;-2.55;100.00;99264.16;2620949;28;20067;-87
2022/12/20 01:11:49;;;;;;;109.80;28.90;;;;;;;-2.99;100.00;99272.75;2620394;28;20101;-88
2022/12/20 01:13:05;;;;;;;104.50;28.02;;;;;;;-2.87;100.00;99268.91;2620137;28;20055;-88
2022/12/20 01:14:21;;;;;;;112.97;28.15;;;;;;;-2.64;100.00;99267.25;2621570;28;20052;-86
2022/12/20 01:15:37;;;;;;;109.38;28.95;;;;;;;-2.41;100.00;99262.13;2620496;28;20565;-86
2022/12/20 01:16:52;;;;;;;111.57;29.05;;;;;;;-2.28;100.00;99266.00;2621760;28;20051;-87
2022/12/20 01:18:08;;;;;;;118.85;31.05;;;;;;;-2.16;100.00;99270.72;2621723;28;20044;-89
2022/12/20 01:19:26;;;;;;;108.60;30.10;;;;;;;-2.32;100.00;99261.59;2621363;28;20090;-88
2022/12/20 01:20:42;;;;;;;113.90;28.65;;;;;;;-2.25;100.00;99258.41;2620634;28;20052;-89
2022/12/20 01:21:58;;;;;;;98.20;29.48;;;;;;;-2.23;100.00;99248.22;2620903;28;20404;-88
2022/12/20 01:23:13;;;;;;;100.07;27.70;;;;;;;-2.36;100.00;99255.47;2621213;28;20063;-90
2022/12/20 01:24:29;;;;;;;82.75;24.90;;;;;;;-2.75;100.00;99248.00;2621415;28;20102;-89
2022/12/20 01:25:44;;;;;;;103.85;27.85;;;;;;;-2.54;100.00;99257.34;2621882;28;20522;-87
2022/12/20 01:27:00;;;;;;;105.75;26.60;;;;;;;-2.46;100.00;99259.38;2620396;28;20125;-87
2022/12/20 01:28:16;;;;;;;102.13;27.08;;;;;;;-2.64;100.00;99261.25;2619990;28;20047;-87
2022/12/20 01:29:31;;;;;;;103.63;27.75;;;;;;;-2.86;100.00;99263.88;2621229;28;20055;-87
2022/12/20 01:30:47;;;;;;;108.40;29.00;;;;;;;-2.75;100.00;99261.72;2621689;28;20076;-87
2022/12/20 01:32:02;;;;;;;106.47;30.73;;;;;;;-2.46;100.00;99244.00;2624249;28;20049;-90
2022/12/20 01:33:18;;;;;;;98.93;29.05;;;;;;;-2.30;100.00;99245.44;2624150;28;20048;-88
2022/12/20 01:34:34;;;;;;;112.10;28.05;;;;;;;-2.35;100.00;99241.81;2623012;28;20051;-88
2022/12/20 01:35:57;;;;;;;107.10;30.83;;;;;;;-2.36;100.00;99252.03;2621525;28;20121;-87
2022/12/20 01:37:13;;;;;;;94.82;28.40;;;;;;;-2.19;100.00;99248.38;2622488;28;20044;-87
2022/12/20 01:38:29;;;;;;;103.30;29.20;;;;;;;-2.21;100.00;99242.34;2622196;28;20139;-86
2022/12/20 01:39:45;;;;;;;102.43;28.25;;;;;;;-2.46;100.00;99249.13;2622386;28;20092;-87
2022/12/20 01:41:01;;;;;;;99.88;28.27;;;;;;;-2.49;100.00;99243.88;2621518;28;20056;-89
2022/12/20 01:42:16;;;;;;;94.78;28.55;;;;;;;-2.32;100.00;99243.63;2621744;28;20048;-87
2022/12/20 01:43:57;;;;;;;103.55;29.08;;;;;;;-2.29;100.00;99236.03;2625313;28;20517;-87
2022/12/20 01:45:24;;;;;;;94.20;27.50;;;;;;;-2.16;100.00;99237.38;2622237;28;21021;-87
2022/12/20 01:46:39;;;;;;;93.85;26.88;;;;;;;-2.37;100.00;99235.75;2623931;28;20106;-87
2022/12/20 01:47:58;;;;;;;90.75;27.50;;;;;;;-2.27;100.00;99245.53;2623800;28;20421;-89
2022/12/20 01:49:24;;;;;;;94.47;27.77;;;;;;;-2.27;100.00;99242.09;2623035;28;20862;-87
2022/12/20 01:50:40;;;;;;;93.25;27.85;;;;;;;-2.31;100.00;99242.81;2622721;28;20098;-88
2022/12/20 01:52:14;;;;;;;89.50;25.20;;;;;;;-2.24;100.00;99246.47;2623419;28;20048;-87
2022/12/20 01:53:30;;;;;;;84.18;23.23;;;;;;;-2.19;100.00;99244.94;2621138;28;20619;-88
2022/12/20 01:54:59;;;;;;;91.15;26.17;;;;;;;-2.27;100.00;99240.41;2621665;28;20048;-87
2022/12/20 01:56:14;;;;;;;100.50;26.95;;;;;;;-2.32;100.00;99234.22;2623226;28;20051;-87
2022/12/20 01:57:41;;;;;;;95.88;27.55;;;;;;;-2.23;100.00;99226.03;2623206;28;20094;-88
2022/12/20 01:58:57;;;;;;;91.82;27.55;;;;;;;-2.34;100.00;99237.56;2622346;28;20083;-87
2022/12/20 02:00:14;;;;;;;83.40;25.42;;;;;;;-2.68;100.00;99236.28;2623069;28;20486;-86
2022/12/20 02:01:30;;;;;;;99.95;27.50;;;;;;;-2.58;100.00;99233.28;2623758;28;20044;-87
2022/12/20 02:02:47;;;;;;;96.05;26.48;;;;;;;-2.40;100.00;99227.97;2620990;28;20048;-88
2022/12/20 02:04:03;;;;;;;87.60;24.65;;;;;;;-2.61;100.00;99223.75;2623216;28;20529;-87
2022/12/20 02:05:21;;;;;;;84.20;25.55;;;;;;;-2.93;100.00;99217.41;2624424;28;20266;-87
2022/12/20 02:06:36;;;;;;;85.78;25.67;;;;;;;-2.83;100.00;99216.97;2622817;28;20052;-87
2022/12/20 02:07:55;;;;;;;83.35;25.65;;;;;;;-2.88;100.00;99213.34;2621741;28;20045;-87
2022/12/20 02:09:11;;;;;;;94.70;25.17;;;;;;;-3.04;100.00;99214.44;2622346;28;20727;-87
2022/12/20 02:10:53;;;;;;;85.35;25.63;;;;;;;-3.09;100.00;99218.53;2621886;28;20079;-88
2022/12/20 02:12:25;;;;;;;88.25;26.35;;;;;;;-3.02;100.00;99218.81;2621993;28;20410;-88
2022/12/20 02:13:56;;;;;;;;;;;;;;;-2.80;100.00;99222.19;2624039;28;20072;-87
2022/12/20 02:15:18;;;;;;;82.07;21.52;;;;;;;-2.68;100.00;99214.13;2622895;28;20374;-90
2022/12/20 02:16:48;;;;;;;75.47;21.95;;;;;;;-2.67;100.00;99220.09;2623615;28;20529;-87
2022/12/20 02:18:10;;;;;;;69.22;20.48;;;;;;;-2.62;100.00;99223.72;2621322;28;20055;-87
2022/12/20 02:19:45;;;;;;;68.40;20.65;;;;;;;-2.99;100.00;99230.88;2624223;28;20051;-87
2022/12/20 02:21:26;;;;;;;71.28;21.42;;;;;;;-2.67;100.00;99220.09;2621312;28;20098;-87
2022/12/20 02:23:19;;;;;;;84.00;23.27;;;;;;;-2.62;100.00;99223.72;2622083;28;20463;-88
2022/12/20 02:25:04;;;;;;;73.63;21.60;;;;;;;-2.52;100.00;99228.38;2604438;28;20070;-88
2022/12/20 02:26:45;;;;;;;73.93;21.60;;;;;;;-2.40;100.00;99227.97;2620472;28;20134;-88
2022/12/20 02:28:25;;;;;;;77.18;23.75;;;;;;;-2.31;100.00;99222.28;2623120;28;20040;-88
2022/12/20 02:30:11;;;;;;;69.43;22.27;;;;;;;-2.36;100.00;99223.81;2621712;28;20079;-87
2022/12/20 02:31:33;;;;;;;69.15;20.10;;;;;;;-2.46;100.00;99236.31;2622784;28;20475;-87
2022/12/20 02:32:51;;;;;;;57.42;19.80;;;;;;;-2.66;100.00;99229.53;2621837;28;20048;-90
2022/12/20 02:34:08;;;;;;;70.00;21.17;;;;;;;-2.76;100.00;99236.91;2623145;28;20102;-88
2022/12/20 02:35:30;;;;;;;77.13;21.73;;;;;;;-2.51;100.00;99232.69;2620966;28;20483;-87
2022/12/20 02:36:46;;;;;;;71.85;21.02;;;;;;;-2.39;100.00;99231.38;2620995;28;20061;-87
2022/12/20 02:38:23;;;;;;;67.68;22.88;;;;;;;-2.27;100.00;99225.03;2622077;28;20051;-87
2022/12/20 02:39:43;;;;;;;80.60;23.17;;;;;;;-2.58;100.00;99217.88;2623621;28;20663;-87
2022/12/20 02:41:10;;;;;;;83.53;26.25;;;;;;;-2.26;100.00;99210.50;2622762;28;20052;-87
2022/12/20 02:42:27;;;;;;;76.43;23.88;;;;;;;-2.40;100.00;99207.44;2622384;28;20098;-87
2022/12/20 02:45:26;;;;;;;78.35;23.42;;;;;;;-2.55;100.00;99218.00;2622540;28;20121;-89
2022/12/20 02:46:43;;;;;;;85.35;24.23;;;;;;;-2.85;100.00;99210.91;2622018;28;20056;-88
2022/12/20 02:48:09;;;;;;;91.03;25.98;;;;;;;-2.98;100.00;99212.13;2622579;28;20474;-86
2022/12/20 02:49:29;;;;;;;91.75;24.83;;;;;;;-2.91;100.00;99206.41;2622503;28;20619;-87
2022/12/20 02:50:48;;;;;;;88.85;24.10;;;;;;;-2.88;100.00;99209.09;2622806;28;20525;-87
2022/12/20 02:52:05;;;;;;;94.47;24.77;;;;;;;-2.83;100.00;99201.59;2621338;28;20793;-89
2022/12/20 02:53:21;;;;;;;92.00;26.55;;;;;;;-2.54;100.00;99199.22;2620665;28;20134;-88
2022/12/20 02:54:37;;;;;;;82.43;24.80;;;;;;;-2.47;100.00;99197.75;2621779;28;20048;-88
2022/12/20 02:56:00;;;;;;;77.93;24.10;;;;;;;-2.96;100.00;99201.94;2621020;28;20075;-87
2022/12/20 02:57:26;;;;;;;70.95;23.75;;;;;;;-2.61;100.00;99197.28;2620813;28;20044;-88
2022/12/20 02:59:19;;;;;;;84.93;25.25;;;;;;;-2.33;100.00;99199.13;2620314;28;20052;-88
2022/12/20 03:00:39;;;;;;;;;;;;;;;-2.30;100.00;99198.38;2620086;28;20082;-87
2022/12/20 03:01:56;;;;;;;60.63;18.25;;;;;;;-2.32;100.00;99205.16;2622113;28;19947;-86
2022/12/20 03:03:21;;;;;;;59.22;21.52;;;;;;;-2.22;100.00;99201.22;2622698;28;20441;-91
2022/12/20 03:04:39;;;;;;;65.38;21.80;;;;;;;-2.25;100.00;99212.25;2622018;28;20387;-86
2022/12/20 03:05:55;;;;;;;62.17;20.92;;;;;;;-2.30;100.00;99212.09;2623010;28;20178;-87
2022/12/20 03:07:13;;;;;;;75.45;22.25;;;;;;;-2.35;100.00;99215.31;2622034;28;20051;-88
2022/12/20 03:08:28;;;;;;;82.28;25.15;;;;;;;-2.24;100.00;99206.28;2621003;28;20059;-86
2022/12/20 03:09:44;;;;;;;85.22;25.77;;;;;;;-2.35;100.00;99198.22;2622502;28;20055;-87
2022/12/20 03:11:00;;;;;;;91.60;25.58;;;;;;;-2.23;100.00;99205.50;2621784;28;20090;-87
2022/12/20 03:12:16;;;;;;;90.35;23.60;;;;;;;-2.33;100.00;99204.28;2621339;28;20048;-87
2022/12/20 03:13:31;;;;;;;83.53;23.58;;;;;;;-2.51;100.00;99209.63;2620287;28;20402;-88
2022/12/20 03:14:47;;;;;;;90.72;24.77;;;;;;;-2.53;100.00;99208.66;2620866;28;20048;-87
2022/12/20 03:16:03;;;;;;;78.07;24.17;;;;;;;-2.36;100.00;99203.31;2620599;28;20066;-86
2022/12/20 03:17:19;;;;;;;92.32;27.13;;;;;;;-2.31;100.00;99202.63;2623329;28;20044;-86
2022/12/20 03:18:34;;;;;;;87.75;27.13;;;;;;;-2.24;100.00;99200.31;2621531;28;20101;-88
2022/12/20 03:19:50;;;;;;;87.10;27.20;;;;;;;-2.23;100.00;99192.66;2621495;28;20055;-87
2022/12/20 03:21:05;;;;;;;84.40;25.83;;;;;;;-2.29;100.00;99195.00;2621976;28;20052;-89
2022/12/20 03:22:22;;;;;;;92.05;27.30;;;;;;;-2.27;100.00;99199.38;2620562;28;20414;-88
2022/12/20 03:23:37;;;;;;;99.90;25.63;;;;;;;-2.15;100.00;99187.81;2621072;28;20045;-87
2022/12/20 03:24:53;;;;;;;92.13;26.80;;;;;;;-2.17;100.00;99190.31;2621967;28;20048;-87
2022/12/20 03:26:09;;;;;;;94.13;27.58;;;;;;;-2.22;100.00;99189.28;2622557;28;20055;-86
2022/12/20 03:27:26;;;;;;;81.15;25.17;;;;;;;-2.10;100.00;99196.53;2622858;28;20467;-87
2022/12/20 03:28:41;;;;;;;83.95;25.20;;;;;;;-1.94;100.00;99186.78;2621281;28;20128;-88
2022/12/20 03:29:57;;;;;;;87.70;25.27;;;;;;;-1.93;100.00;99197.13;2620630;28;20056;-88
2022/12/20 03:31:12;;;;;;;84.95;24.92;;;;;;;-2.00;100.00;99190.03;2622097;28;20051;-88
2022/12/20 03:32:28;;;;;;;99.13;27.60;;;;;;;-2.11;100.00;99189.66;2623521;28;20106;-87
2022/12/20 03:33:44;;;;;;;82.57;25.80;;;;;;;-2.06;100.00;99192.38;2622298;28;20072;-87
2022/12/20 03:34:59;;;;;;;88.50;25.75;;;;;;;-2.08;100.00;99200.00;2620446;28;20049;-87
2022/12/20 03:36:15;;;;;;;90.75;25.48;;;;;;;-2.08;100.00;99199.16;2623520;28;20522;-88
2022/12/20 03:37:30;;;;;;;82.57;25.45;;;;;;;-2.01;100.00;99193.41;2621443;28;20127;-87
2022/12/20 03:38:46;;;;;;;84.72;26.00;;;;;;;-1.94;100.00;99194.50;2620477;28;20047;-89
2022/12/20 03:40:02;;;;;;;85.22;27.45;;;;;;;-2.03;100.00;99195.91;2621076;28;20462;-88
2022/12/20 03:41:20;;;;;;;83.40;25.30;;;;;;;-1.93;100.00;99189.44;2621289;28;20077;-87
2022/12/20 03:42:36;;;;;;;79.72;26.52;;;;;;;-1.86;100.00;99188.78;2620382;28;20056;-88
2022/12/20 03:43:52;;;;;;;79.68;25.48;;;;;;;-1.92;100.00;99191.16;2620662;28;20056;-87
2022/12/20 03:45:08;;;;;;;81.00;24.15;;;;;;;-2.07;100.00;99204.31;2623384;28;20044;-87
2022/12/20 03:46:24;;;;;;;83.20;24.50;;;;;;;-2.06;100.00;99210.34;2623470;28;20055;-87
2022/12/20 03:47:39;;;;;;;75.18;24.20;;;;;;;-1.88;100.00;99195.56;2621140;28;20580;-87
2022/12/20 03:48:55;;;;;;;75.18;25.73;;;;;;;-2.13;100.00;99192.16;2623663;28;20048;-88
2022/12/20 03:50:11;;;;;;;79.32;23.40;;;;;;;-2.03;100.00;99190.78;2622790;28;20055;-90
2022/12/20 03:51:26;;;;;;;78.72;23.60;;;;;;;-1.87;100.00;99192.19;2621947;28;20052;-88
2022/12/20 03:52:42;;;;;;;63.28;22.45;;;;;;;-1.79;100.00;99202.72;2621626;28;20056;-86
2022/12/20 03:53:58;;;;;;;73.75;24.70;;;;;;;-1.77;100.00;99206.19;2620325;28;20413;-86
2022/12/20 03:55:13;;;;;;;69.95;23.40;;;;;;;-1.81;100.00;99209.50;2622455;28;20445;-87
2022/12/20 03:56:29;;;;;;;64.43;23.17;;;;;;;-1.87;100.00;99205.03;2623669;28;20253;-87
2022/12/20 03:57:44;;;;;;;70.07;23.73;;;;;;;-1.95;100.00;99216.72;2621402;28;20600;-86
2022/12/20 03:59:00;;;;;;;83.15;26.95;;;;;;;-2.02;100.00;99210.50;2620586;28;20055;-91
2022/12/20 04:00:16;;;;;;;95.45;27.95;;;;;;;-1.79;100.00;99199.28;2622253;28;20079;-87
2022/12/20 04:01:35;;;;;;;95.35;28.08;;;;;;;-1.75;100.00;99207.13;2621121;28;20131;-87
2022/12/20 04:02:51;;;;;;;103.88;28.38;;;;;;;-1.82;100.00;99206.88;2620197;28;20052;-88
2022/12/20 04:04:09;;;;;;;101.18;27.95;;;;;;;-1.73;100.00;99196.91;2620655;28;20084;-87
2022/12/20 04:05:24;;;;;;;95.10;27.27;;;;;;;-1.92;100.00;99190.28;2622735;28;20044;-87
2022/12/20 04:06:41;;;;;;;93.53;27.80;;;;;;;-2.15;100.00;99180.13;2621339;28;20062;-87
2022/12/20 04:07:56;;;;;;;106.65;30.08;;;;;;;-2.05;100.00;99181.31;2622076;28;20168;-87
2022/12/20 04:09:12;;;;;;;88.90;26.50;;;;;;;-2.05;100.00;99194.97;2620527;28;20378;-87
2022/12/20 04:10:27;;;;;;;98.50;26.65;;;;;;;-2.17;100.00;99185.19;2621593;28;20135;-88
2022/12/20 04:11:43;;;;;;;89.63;24.48;;;;;;;-2.62;100.00;99170.75;2621960;28;20155;-87
2022/12/20 04:12:58;;;;;;;105.03;28.55;;;;;;;-2.43;100.00;99171.44;2620951;28;20051;-88
2022/12/20 04:14:14;;;;;;;103.57;28.45;;;;;;;-2.45;100.00;99161.13;2619690;28;20677;-89
2022/12/20 04:15:30;;;;;;;104.68;30.35;;;;;;;-2.54;100.00;99150.50;2622166;28;20080;-88
2022/12/20 04:16:45;;;;;;;101.63;29.83;;;;;;;-2.64;100.00;99151.03;2621893;28;20059;-88
2022/12/20 04:18:01;;;;;;;103.85;27.60;;;;;;;-2.80;100.00;99141.88;2620473;28;20540;-87
2022/12/20 04:19:16;;;;;;;98.93;28.50;;;;;;;-2.45;100.00;99143.16;2622947;28;20044;-87
2022/12/20 04:20:32;;;;;;;90.45;27.13;;;;;;;-2.38;100.00;99146.81;2621268;28;20090;-87
2022/12/20 04:21:48;;;;;;;62.75;22.00;;;;;;;-2.80;100.00;99173.50;2623433;28;20055;-87
2022/12/20 04:23:03;;;;;;;55.85;17.27;;;;;;;-2.59;100.00;99217.00;2622970;28;20135;-88
2022/12/20 04:24:19;;;;;;;61.40;20.70;;;;;;;-2.49;100.00;99249.00;2622490;28;20048;-88
2022/12/20 04:25:34;;;;;;;49.17;16.10;;;;;;;-2.40;100.00;99263.88;2620654;28;20048;-87
2022/12/20 04:26:50;;;;;;;85.07;25.10;;;;;;;-2.28;100.00;99250.59;2620985;28;20459;-88
2022/12/20 04:28:06;;;;;;;76.72;24.25;;;;;;;-2.09;100.00;99239.31;2620478;28;20052;-88
2022/12/20 04:29:21;;;;;;;82.57;24.70;;;;;;;-1.83;100.00;99226.53;2620212;28;20056;-88
2022/12/20 04:30:37;;;;;;;79.95;23.08;;;;;;;-1.99;100.00;99212.28;2621186;28;20084;-88
2022/12/20 04:31:52;;;;;;;90.65;27.17;;;;;;;-2.10;100.00;99203.34;2621442;28;20051;-87
2022/12/20 04:33:08;;;;;;;86.43;25.20;;;;;;;-2.17;100.00;99205.69;2623522;28;20048;-86
2022/12/20 04:34:23;;;;;;;80.18;22.90;;;;;;;-2.32;100.00;99210.28;2621522;28;20131;-87
2022/12/20 04:35:39;;;;;;;96.13;27.20;;;;;;;-2.09;100.00;99203.41;2620143;28;20582;-87
2022/12/20 04:36:55;;;;;;;96.60;27.52;;;;;;;-1.79;100.00;99189.03;2623547;28;20052;-87
2022/12/20 04:38:10;;;;;;;162.48;52.40;;;;;;;-1.86;100.00;99182.81;2622170;28;20098;-87
2022/12/20 04:39:26;;;;;;;199.48;63.65;;;;;;;-1.77;100.00;99188.22;2619980;28;20052;-87
2022/12/20 04:40:41;;;;;;;192.98;59.10;;;;;;;-1.78;100.00;99188.19;2621742;28;20163;-88
2022/12/20 04:41:57;;;;;;;100.53;34.30;;;;;;;-1.72;100.00;99196.97;2619769;28;20052;-88
2022/12/20 04:43:12;;;;;;;91.88;26.38;;;;;;;-1.71;100.00;99200.41;2619998;28;20048;-90
2022/12/20 04:44:28;;;;;;;66.88;22.75;;;;;;;-2.07;100.00;99211.16;2619463;28;20387;-88
2022/12/20 04:45:46;;;;;;;73.00;24.73;;;;;;;-2.08;100.00;99225.69;2620594;28;20048;-89
2022/12/20 04:47:02;;;;;;;76.85;23.95;;;;;;;-1.98;100.00;99219.16;2619129;28;20609;-88
2022/12/20 04:48:18;;;;;;;93.88;27.85;;;;;;;-1.84;100.00;99206.81;2619481;28;20056;-86
2022/12/20 04:49:34;;;;;;;92.38;25.42;;;;;;;-1.59;100.00;99208.53;2622621;28;20521;-89
2022/12/20 04:50:50;;;;;;;84.57;26.90;;;;;;;-1.48;100.00;99219.13;2622838;28;20063;-88
2022/12/20 04:53:46;;;;;;;80.68;23.55;;;;;;;-1.88;100.00;99221.25;2620530;28;20052;-90
2022/12/20 04:55:02;;;;;;;82.68;23.65;;;;;;;-1.88;100.00;99220.38;2619524;28;20410;-87
2022/12/20 04:56:20;;;;;;;83.85;25.52;;;;;;;-1.92;100.00;99216.84;2619579;28;20056;-89
2022/12/20 04:57:36;;;;;;;84.55;26.75;;;;;;;-2.04;100.00;99226.66;2621925;28;20072;-89
2022/12/20 04:58:54;;;;;;;72.93;25.35;;;;;;;-1.87;100.00;99220.41;2621384;28;20071;-89
2022/12/20 05:00:10;;;;;;;76.90;23.48;;;;;;;-1.69;100.00;99219.28;2621671;28;20048;-88
2022/12/20 05:01:25;;;;;;;89.68;25.77;;;;;;;-1.65;100.00;99226.31;2621688;28;20651;-88
2022/12/20 05:02:41;;;;;;;84.40;26.50;;;;;;;-1.89;100.00;99222.06;2621114;28;20052;-88
2022/12/20 05:03:57;;;;;;;88.65;26.42;;;;;;;-2.05;100.00;99212.94;2620991;28;20053;-87
2022/12/20 05:05:12;;;;;;;85.32;27.58;;;;;;;-1.99;100.00;99204.59;2622193;28;20055;-88
2022/12/20 05:06:28;;;;;;;88.22;26.63;;;;;;;-1.87;100.00;99210.16;2624483;28;20123;-88
2022/12/20 05:07:44;;;;;;;94.50;28.50;;;;;;;-1.82;100.00;99196.59;2624176;28;20215;-88
2022/12/20 05:08:59;;;;;;;84.38;26.02;;;;;;;-1.66;100.00;99204.03;2621474;28;20063;-88
2022/12/20 05:10:15;;;;;;;79.07;26.40;;;;;;;-1.46;100.00;99196.09;2622662;28;20055;-88
2022/12/20 05:11:30;;;;;;;87.32;26.48;;;;;;;-1.33;100.00;99179.34;2621435;28;20079;-87
2022/12/20 05:12:46;;;;;;;91.22;28.80;;;;;;;-1.46;100.00;99167.84;2623883;28;20079;-87
2022/12/20 05:14:02;;;;;;;87.63;25.55;;;;;;;-1.49;100.00;99162.59;2622557;28;20579;-89
2022/12/20 05:15:17;;;;;;;86.47;27.10;;;;;;;-1.56;100.00;99154.69;2623119;28;20052;-87
2022/12/20 05:16:33;;;;;;;87.15;26.20;;;;;;;-1.58;100.00;99145.22;2621192;28;20047;-87
2022/12/20 05:17:48;;;;;;;89.32;25.52;;;;;;;-1.50;100.00;99155.72;2623348;28;20101;-87
2022/12/20 05:19:04;;;;;;;79.68;26.60;;;;;;;-1.67;100.00;99156.06;2623091;28;20045;-88
2022/12/20 05:20:20;;;;;;;84.38;24.30;;;;;;;-1.55;100.00;99150.44;2622770;28;20398;-87
2022/12/20 05:26:18;;;;;;;79.85;24.63;;;;;;;-1.62;100.00;99154.50;2623239;28;21080;-88
2022/12/20 05:27:33;;;;;;;84.13;25.98;;;;;;;-1.58;100.00;99128.09;2623697;28;20052;-86
2022/12/20 05:28:49;;;;;;;78.72;25.90;;;;;;;-1.80;100.00;99128.25;2621731;28;20696;-85
2022/12/20 05:30:05;;;;;;;84.30;29.10;;;;;;;-1.79;100.00;99133.41;2621824;28;20052;-87
2022/12/20 05:31:21;;;;;;;90.85;28.50;;;;;;;-1.62;100.00;99128.81;2621718;28;20109;-87
2022/12/20 05:32:37;;;;;;;87.75;26.83;;;;;;;-1.56;100.00;99138.41;2621755;28;20112;-87
2022/12/20 05:33:53;;;;;;;83.95;25.75;;;;;;;-1.84;100.00;99155.50;2622950;28;20056;-86
2022/12/20 05:35:08;;;;;;;88.63;27.20;;;;;;;-1.54;100.00;99136.78;2621731;28;20048;-87
2022/12/20 05:36:24;;;;;;;83.68;26.95;;;;;;;-1.59;100.00;99136.63;2621889;28;20055;-86
2022/12/20 05:37:39;;;;;;;83.05;26.13;;;;;;;-1.50;100.00;99146.31;2623834;28;20063;-89
2022/12/20 05:38:55;;;;;;;82.85;26.02;;;;;;;-1.49;100.00;99144.63;2624586;28;20487;-85
2022/12/20 05:40:11;;;;;;;79.47;25.40;;;;;;;-1.66;100.00;99152.66;2624262;28;20052;-85
2022/12/20 05:41:27;;;;;;;63.22;20.65;;;;;;;-2.05;100.00;99161.63;2622212;28;20134;-86
2022/12/20 05:42:43;;;;;;;83.28;25.38;;;;;;;-1.99;100.00;99174.69;2623053;28;20109;-86
2022/12/20 05:43:59;;;;;;;85.50;24.27;;;;;;;-1.93;100.00;99191.09;2620516;28;20194;-84
2022/12/20 05:45:14;;;;;;;77.03;22.30;;;;;;;-2.20;100.00;99205.59;2615517;28;20044;-85
2022/12/20 05:46:30;;;;;;;68.50;22.80;;;;;;;-2.37;100.00;99209.25;2623193;28;20044;-85
2022/12/20 05:47:46;;;;;;;59.40;20.95;;;;;;;-2.36;100.00;99208.44;2623400;28;20078;-84
2022/12/20 05:49:02;;;;;;;78.45;23.27;;;;;;;-2.18;100.00;99209.09;2623305;28;20634;-86
2022/12/20 05:50:18;;;;;;;82.25;26.58;;;;;;;-2.06;100.00;99211.19;2622261;28;20059;-86
2022/12/20 05:51:34;;;;;;;88.20;27.50;;;;;;;-1.78;100.00;99201.88;2624514;28;20044;-86
2022/12/20 05:52:49;;;;;;;90.82;27.35;;;;;;;-1.64;100.00;99194.66;2622460;28;20324;-86
2022/12/20 05:54:05;;;;;;;85.65;27.25;;;;;;;-1.73;100.00;99195.22;2624080;28;20067;-86
2022/12/20 05:55:21;;;;;;;88.85;25.33;;;;;;;-1.71;100.00;99196.16;2622355;28;20454;-86
2022/12/20 05:56:36;;;;;;;95.82;27.83;;;;;;;-1.56;100.00;99194.91;2622928;28;20091;-88
2022/12/20 05:57:52;;;;;;;82.68;25.00;;;;;;;-2.06;100.00;99179.56;2623286;28;20479;-86
2022/12/20 05:59:08;;;;;;;91.88;26.80;;;;;;;-2.25;100.00;99162.66;2621678;28;20048;-86
2022/12/20 06:00:23;;;;;;;78.03;24.77;;;;;;;-2.35;100.00;99166.59;2623139;28;20048;-87